Nearby METAR Reports

 

KSGR - Houston/Sugar La, Texas, USA
Distance from station: ESE 7mi, 12km
Updated: Sat, 22-Jan-2022 8:53pm CST
Clear
Clear
 Wind from N
Wind: N 3 mph , 6 km/h
Temperature: 43°F , 6°C
Dew Point: 25°F , -4°C
Humidity: 49%
Barometer: 30.37 inHg , 1028.4 hPa
Clouds: Clear
Visibility: 10 miles , 16 km
2022/01/23 02:53 KSGR 230253Z 01003KT 10SM CLR 06/M04 A3037 RMK AO2 SLP284 T00611039 53009
KTME - Houston Exec, Texas, USA
Distance from station: NW 14mi, 22km
Updated: Sat, 22-Jan-2022 9:15pm CST
Clear
Clear
 Wind from calm
Wind: Calm
Temperature: 41°F , 5°C
Dew Point: 28°F , -2°C
Humidity: 61%
Barometer: 30.38 inHg , 1028.8 hPa
Clouds: Clear
Visibility: 10 miles , 16 km
2022/01/23 03:15 KTME 230315Z AUTO 00000KT 10SM CLR 05/M02 A3038 RMK AO2
 
KAXH - Houston/Southwst, Texas, USA
Distance from station: ESE 19mi, 31km
Updated: Sat, 22-Jan-2022 9:15pm CST
Clear
Clear
 Wind from calm
Wind: Calm
Temperature: 41°F , 5°C
Dew Point: 27°F , -3°C
Humidity: 57%
Barometer: 30.38 inHg , 1028.8 hPa
Clouds: Clear
Visibility: 10 miles , 16 km
2022/01/23 03:15 KAXH 230315Z AUTO 00000KT 10SM CLR 05/M03 A3038 RMK AO2 T00511026
KMCJ - Houston/Univ, Texas, USA
Distance from station: ENE 23mi, 37km
Updated: Sat, 22-Jan-2022 9:15pm CST
Clear
Clear
 Wind from NNE
Wind: NNE 8 mph , 13 km/h
Temperature: 48°F , 9°C
Wind Chill: 44°F , 7°C
Dew Point: 21°F , -6°C
Humidity: 34%
Barometer: 30.34 inHg , 1027.4 hPa
Clouds: Clear
Visibility: 10 miles , 16 km
2022/01/23 03:15 KMCJ 230315Z AUTO 02007KT 10SM CLR 09/M06 A3034 RMK A01
 
KHOU - Houston/Hobby, Texas, USA
Distance from station: E 29mi, 47km
Updated: Sat, 22-Jan-2022 8:53pm CST
Partly cloudy
Partly cloudy
 Wind from NNE
Wind: NNE 8 mph , 13 km/h
Temperature: 48°F , 9°C
Wind Chill: 44°F , 7°C
Dew Point: 27°F , -3°C
Humidity: 43%
Barometer: 30.36 inHg , 1028.1 hPa
Clouds: Partly cloudy
Visibility: 10 miles , 16 km
Cloud details: Partly cloudy 25000 ft
2022/01/23 02:53 KHOU 230253Z 03007KT 10SM SCT250 09/M03 A3036 RMK AO2 SLP285 T00891033 52005 $
KDWH - Houston/Dw Hooks, Texas, USA
Distance from station: NNE 32mi, 52km
Updated: Sat, 22-Jan-2022 8:53pm CST
Clear
Clear
 Wind from NNE
Wind: NNE 5 mph , 7 km/h
Temperature: 39°F , 4°C
Wind Chill: 35°F , 2°C
Dew Point: 28°F , -2°C
Humidity: 65%
Barometer: 30.37 inHg , 1028.4 hPa
Clouds: Clear
Visibility: 10 miles , 16 km
2022/01/23 02:53 KDWH 230253Z AUTO 03004KT 10SM CLR 04/M02 A3037 RMK AO2 SLP283 T00441017 51005
 
KLVJ - Houston, Texas, USA
Distance from station: ESE 32mi, 52km
Updated: Sat, 22-Jan-2022 8:53pm CST
Clear
Clear
 Wind from calm
Wind: Calm
Temperature: 43°F , 6°C
Dew Point: 28°F , -2°C
Humidity: 57%
Barometer: 30.38 inHg , 1028.8 hPa
Clouds: Clear
Visibility: 10 miles , 16 km
2022/01/23 02:53 KLVJ 230253Z AUTO 00000KT 10SM CLR 06/M02 A3038 RMK AO2 SLP286 T00561017 52006
KELA - Eagle Lake, Texas, USA
Distance from station: W 33mi, 53km
Updated: Sat, 22-Jan-2022 9:15pm CST
Clear
Clear
 Wind from N
Wind: N 3 mph , 6 km/h
Temperature: 41°F , 5°C
Dew Point: 28°F , -2°C
Humidity: 61%
Barometer: 30.37 inHg , 1028.4 hPa
Clouds: Clear
Visibility: 10 miles , 16 km
2022/01/23 03:15 KELA 230315Z AUTO 36003KT 10SM CLR 05/M02 A3037 RMK AO2 T00451019
 
KIAH - Houston/Intnl, Texas, USA
Distance from station: NE 35mi, 56km
Updated: Sat, 22-Jan-2022 8:53pm CST
Partly cloudy
Partly cloudy
 Wind from NNE
Wind: NNE 8 mph , 13 km/h
Temperature: 45°F , 7°C
Wind Chill: 41°F , 5°C
Dew Point: 27°F , -3°C
Humidity: 49%
Barometer: 30.37 inHg , 1028.4 hPa
Clouds: Partly cloudy
Visibility: 10 miles , 16 km
Cloud details: Partly cloudy 25000 ft
2022/01/23 02:53 KIAH 230253Z 02007KT 10SM SCT250 07/M03 A3037 RMK AO2 SLP284 T00671033 53004
KARM - Wharton, Texas, USA
Distance from station: SW 35mi, 57km
Updated: Sat, 22-Jan-2022 9:15pm CST
Mostly cloudy
Mostly cloudy
 Wind from calm
Wind: Calm
Temperature: 41°F , 5°C
Dew Point: 27°F , -3°C
Humidity: 57%
Barometer: 30.38 inHg , 1028.8 hPa
Clouds: Mostly cloudy
Visibility: 10 miles , 16 km
Cloud details: Mostly cloudy 7500 ft
2022/01/23 03:15 KARM 230315Z AUTO 00000KT 10SM BKN075 05/M03 A3038 RMK AO2 T00491028
 
KEFD - Houston/Ellingto, Texas, USA
Distance from station: E 36mi, 59km
Updated: Sat, 22-Jan-2022 8:50pm CST
Clear
Clear
 Wind from NNE
Wind: NNE 9 mph , 15 km/h
Temperature: 43°F , 6°C
Wind Chill: 38°F , 3°C
Dew Point: 27°F , -3°C
Humidity: 53%
Barometer: 30.36 inHg , 1028.1 hPa
Clouds: Clear
Visibility: 10 miles , 16 km
2022/01/23 02:50 KEFD 230250Z 03008KT 10SM CLR 06/M03 A3036
KLBX - Angleton, Texas, USA
Distance from station: SSE 40mi, 65km
Updated: Sat, 22-Jan-2022 8:53pm CST
Clear
Clear
 Wind from calm
Wind: Calm
Temperature: 39°F , 4°C
Dew Point: 30°F , -1°C
Humidity: 70%
Barometer: 30.37 inHg , 1028.4 hPa
Clouds: Clear
Visibility: 10 miles , 16 km
2022/01/23 02:53 KLBX 230253Z AUTO 00000KT 10SM CLR 04/M01 A3037 RMK AO2 SLP283 T00391011 53012
 
K66R - Columbus, Texas, USA
Distance from station: W 45mi, 72km
Updated: Sat, 22-Jan-2022 9:15pm CST
Clear
Clear
 Wind from calm
Wind: Calm
Temperature: 37°F , 3°C
Dew Point: 28°F , -2°C
Humidity: 70%
Barometer: 30.38 inHg , 1028.8 hPa
Clouds: Clear
Visibility: 10 miles , 16 km
2022/01/23 03:15 K66R 230315Z AUTO 00000KT 10SM CLR 03/M02 A3038 RMK AO2 T00291016
KBYY - Bay City, Texas, USA
Distance from station: S 47mi, 75km
Updated: Sat, 22-Jan-2022 9:15pm CST
Overcast
Overcast
 Wind from calm
Wind: Calm
Temperature: 43°F , 6°C
Dew Point: 32°F , 0°C
Humidity: 66%
Barometer: 30.38 inHg , 1028.8 hPa
Clouds: Overcast
Visibility: 10 miles , 16 km
Cloud details: Overcast 7500 ft
2022/01/23 03:15 KBYY 230315Z AUTO 00000KT 10SM OVC075 06/00 A3038 RMK AO2 T00590008